createdAt,value
2019-03-27T00:03:05.145Z,99.60
2019-03-27T00:06:14.663Z,99.60
2019-03-27T00:09:34.271Z,99.80
2019-03-27T00:12:43.848Z,99.90
2019-03-27T00:15:53.286Z,99.90
2019-03-27T00:19:02.857Z,99.90
2019-03-27T00:22:12.417Z,99.90
2019-03-27T00:25:32.010Z,99.90
2019-03-27T00:28:42.388Z,99.90
2019-03-27T00:31:54.646Z,99.90
2019-03-27T00:35:04.229Z,99.90
2019-03-27T00:38:24.065Z,99.90
2019-03-27T00:41:33.476Z,99.90
2019-03-27T00:44:42.885Z,99.90
2019-03-27T00:47:53.290Z,99.90
2019-03-27T00:51:13.075Z,99.90
2019-03-27T00:54:22.472Z,99.90
2019-03-27T00:57:31.909Z,99.90
2019-03-27T01:01:14.050Z,99.90
2019-03-27T01:04:24.441Z,99.90
2019-03-27T01:07:33.948Z,99.90
2019-03-27T01:10:43.252Z,99.70
2019-03-27T01:14:02.998Z,99.80
2019-03-27T01:17:12.415Z,99.80
2019-03-27T01:20:21.833Z,99.80
2019-03-27T01:23:41.592Z,99.80
2019-03-27T01:26:51.037Z,99.90
2019-03-27T01:30:00.548Z,99.90
2019-03-27T01:33:10.263Z,99.90
2019-03-27T01:36:19.576Z,99.90
2019-03-27T01:39:39.301Z,99.90
2019-03-27T01:42:48.726Z,99.90
2019-03-27T01:45:58.213Z,99.90
2019-03-27T01:49:17.939Z,99.90
2019-03-27T01:52:27.498Z,99.90
2019-03-27T01:55:36.913Z,99.90
2019-03-27T01:58:48.252Z,99.90
2019-03-27T02:01:57.740Z,99.90
2019-03-27T02:05:08.566Z,99.90
2019-03-27T02:08:18.115Z,99.90
2019-03-27T02:11:27.581Z,99.90
2019-03-27T02:14:37.164Z,99.90
2019-03-27T02:17:46.508Z,99.90
2019-03-27T02:21:06.043Z,99.90
2019-03-27T02:24:15.464Z,99.90
2019-03-27T02:27:24.996Z,99.90
2019-03-27T02:30:44.606Z,99.90
2019-03-27T02:33:55.742Z,99.90
2019-03-27T02:37:05.041Z,99.90
2019-03-27T02:40:24.808Z,99.90
2019-03-27T02:43:34.309Z,99.90
2019-03-27T02:46:43.724Z,99.90
2019-03-27T02:50:03.566Z,99.90
2019-03-27T02:53:12.966Z,99.90
2019-03-27T02:56:22.466Z,99.90
2019-03-27T02:59:31.990Z,99.90
2019-03-27T03:02:41.324Z,99.90
2019-03-27T03:06:01.137Z,99.90
2019-03-27T03:09:10.590Z,99.90
2019-03-27T03:12:21.466Z,99.90
2019-03-27T03:15:41.501Z,99.90
2019-03-27T03:18:50.922Z,99.90
2019-03-27T03:22:00.545Z,99.90
2019-03-27T03:25:10.350Z,99.90
2019-03-27T03:28:19.665Z,99.90
2019-03-27T03:31:29.056Z,99.90
2019-03-27T03:34:38.556Z,99.90
2019-03-27T03:37:58.384Z,99.90
2019-03-27T03:41:07.765Z,99.90
2019-03-27T03:44:17.212Z,99.90
2019-03-27T03:47:36.847Z,99.90
2019-03-27T03:50:47.127Z,99.90
2019-03-27T03:53:56.961Z,99.90
2019-03-27T03:57:06.938Z,99.90
2019-03-27T04:00:16.659Z,99.90
2019-03-27T04:03:38.346Z,99.90
2019-03-27T04:06:47.728Z,99.90
2019-03-27T04:09:57.045Z,99.90
2019-03-27T04:13:06.640Z,99.90
2019-03-27T04:16:16.052Z,99.90
2019-03-27T04:19:35.587Z,99.90
2019-03-27T04:22:45.018Z,99.90
2019-03-27T04:26:09.133Z,99.90
2019-03-27T04:29:16.031Z,99.90
2019-03-27T04:32:25.365Z,99.90
2019-03-27T04:35:34.803Z,99.90
2019-03-27T04:38:44.246Z,99.90
2019-03-27T04:41:53.945Z,99.90
2019-03-27T04:45:13.897Z,99.80
2019-03-27T04:48:23.455Z,99.90
2019-03-27T04:51:32.891Z,99.90
2019-03-27T04:54:42.423Z,99.90
2019-03-27T04:57:52.120Z,99.90
2019-03-27T05:01:01.528Z,99.90
2019-03-27T05:04:11.356Z,99.90
2019-03-27T05:07:20.855Z,99.90
2019-03-27T05:10:30.475Z,99.90
2019-03-27T05:13:40.004Z,99.90
2019-03-27T05:16:49.445Z,99.90
2019-03-27T05:19:58.983Z,99.90
2019-03-27T05:23:08.634Z,99.90
2019-03-27T05:26:28.167Z,99.90
2019-03-27T05:29:37.845Z,99.80
2019-03-27T05:32:47.312Z,99.90
2019-03-27T05:35:56.344Z,99.80
2019-03-27T05:39:06.847Z,99.90
2019-03-27T05:42:14.918Z,99.90
2019-03-27T05:45:36.192Z,99.80
2019-03-27T05:48:45.671Z,99.80
2019-03-27T05:51:55.323Z,99.70
2019-03-27T05:55:15.010Z,99.70
2019-03-27T05:58:24.551Z,99.70
2019-03-27T06:01:33.945Z,99.70
2019-03-27T06:04:43.541Z,99.60
2019-03-27T06:07:52.983Z,99.20
2019-03-27T06:11:12.972Z,99.40
2019-03-27T06:14:22.518Z,99.40
2019-03-27T06:17:32.267Z,99.20
2019-03-27T06:20:41.724Z,99.10
2019-03-27T06:23:51.152Z,99.30
2019-03-27T06:26:59.056Z,99.10
2019-03-27T06:30:10.391Z,99.00
2019-03-27T06:33:20.182Z,99.10
2019-03-27T06:36:29.647Z,98.70
2019-03-27T06:39:39.188Z,98.80
2019-03-27T06:42:48.603Z,98.80
2019-03-27T06:46:08.820Z,98.90
2019-03-27T06:49:18.472Z,98.90
2019-03-27T06:52:28.629Z,98.90
2019-03-27T06:56:08.057Z,98.60
2019-03-27T06:59:17.716Z,98.40
2019-03-27T07:02:28.796Z,98.20
2019-03-27T07:05:38.225Z,98.00
2019-03-27T07:08:49.573Z,98.10
2019-03-27T07:11:59.174Z,98.00
2019-03-27T07:15:09.339Z,97.50
2019-03-27T07:18:18.739Z,97.60
2019-03-27T07:21:38.766Z,97.60
2019-03-27T07:24:48.380Z,97.70
2019-03-27T07:27:57.761Z,97.90
2019-03-27T07:31:07.132Z,97.40
2019-03-27T07:34:16.618Z,97.00
2019-03-27T07:37:36.447Z,96.80
2019-03-27T07:40:45.870Z,96.60
2019-03-27T07:43:55.477Z,96.40
2019-03-27T07:47:05.125Z,96.00
2019-03-27T07:50:15.116Z,96.10
2019-03-27T07:53:24.500Z,95.60
2019-03-27T07:56:34.171Z,95.30
2019-03-27T07:59:43.648Z,95.30
2019-03-27T08:02:53.199Z,95.20
2019-03-27T08:06:03.312Z,94.80
2019-03-27T08:09:23.254Z,95.00
2019-03-27T08:12:32.797Z,95.00
2019-03-27T08:15:42.328Z,95.20
2019-03-27T08:19:06.967Z,94.80
2019-03-27T08:22:05.512Z,94.70
2019-03-27T08:25:15.379Z,94.40
2019-03-27T08:28:24.807Z,94.10
2019-03-27T08:31:35.684Z,94.40
2019-03-27T08:34:55.268Z,94.30
2019-03-27T08:38:04.647Z,93.80
2019-03-27T08:41:14.986Z,94.10
2019-03-27T08:44:24.355Z,94.10
2019-03-27T08:47:44.194Z,94.30
2019-03-27T08:50:53.992Z,93.70
2019-03-27T08:54:03.588Z,93.70
2019-03-27T08:57:13.336Z,93.30
2019-03-27T09:00:51.541Z,93.10
2019-03-27T09:04:01.033Z,93.30
2019-03-27T09:07:10.699Z,93.50
2019-03-27T09:10:20.411Z,93.30
2019-03-27T09:13:29.968Z,93.20
2019-03-27T09:16:39.591Z,92.50
2019-03-27T09:19:49.109Z,92.70
2019-03-27T09:22:58.779Z,92.80
2019-03-27T09:26:08.221Z,92.80
2019-03-27T09:29:18.894Z,92.60
2019-03-27T09:32:28.464Z,92.30
2019-03-27T09:35:38.597Z,92.20
2019-03-27T09:38:48.022Z,91.80
2019-03-27T09:41:57.584Z,92.30
2019-03-27T09:45:18.671Z,92.00
2019-03-27T09:48:38.444Z,92.00
2019-03-27T09:51:47.928Z,91.40
2019-03-27T09:54:57.367Z,91.40
2019-03-27T09:58:17.013Z,91.70
2019-03-27T10:01:26.496Z,91.50
2019-03-27T10:04:36.454Z,91.30
2019-03-27T10:07:46.097Z,91.30
2019-03-27T10:11:05.870Z,91.30
2019-03-27T10:14:15.523Z,91.30
2019-03-27T10:17:25.076Z,91.20
2019-03-27T10:20:34.641Z,91.30
2019-03-27T10:23:44.163Z,91.20
2019-03-27T10:26:53.712Z,91.30
2019-03-27T10:30:03.358Z,91.00
2019-03-27T10:33:15.241Z,91.00
2019-03-27T10:36:24.078Z,91.10
2019-03-27T10:39:34.040Z,91.40
2019-03-27T10:42:54.234Z,91.80
2019-03-27T10:46:04.905Z,92.00
2019-03-27T10:49:14.444Z,92.90
2019-03-27T10:52:35.869Z,93.60
2019-03-27T10:55:45.411Z,93.80
2019-03-27T10:58:54.961Z,94.10
2019-03-27T11:02:04.388Z,94.40
2019-03-27T11:05:14.357Z,94.90
2019-03-27T11:08:24.019Z,95.10
2019-03-27T11:11:33.561Z,95.30
2019-03-27T11:14:43.092Z,95.10
2019-03-27T11:17:54.099Z,95.10
2019-03-27T11:21:03.878Z,96.10
2019-03-27T11:24:13.636Z,96.60
2019-03-27T11:27:23.275Z,97.20
2019-03-27T11:30:46.899Z,97.50
2019-03-27T11:34:07.919Z,98.00
2019-03-27T11:37:17.555Z,98.80
2019-03-27T11:40:37.581Z,99.10
2019-03-27T11:43:54.645Z,99.50
2019-03-27T11:46:58.477Z,99.50
2019-03-27T11:50:10.319Z,99.50
2019-03-27T11:53:19.677Z,98.80
2019-03-27T11:56:29.176Z,99.70
2019-03-27T11:59:54.219Z,99.10
2019-03-27T12:03:01.036Z,99.80
2019-03-27T12:06:10.701Z,99.50
2019-03-27T12:09:20.138Z,99.90
2019-03-27T12:12:29.686Z,99.90
2019-03-27T12:15:49.367Z,99.90
2019-03-27T12:18:58.911Z,99.90
2019-03-27T12:22:13.373Z,99.90
2019-03-27T12:25:23.117Z,99.90
2019-03-27T12:28:32.489Z,99.90
2019-03-27T12:31:41.964Z,99.90
2019-03-27T12:34:51.471Z,99.90
2019-03-27T12:38:11.077Z,99.90
2019-03-27T12:41:20.879Z,99.90
2019-03-27T12:44:30.423Z,99.90
2019-03-27T12:47:39.972Z,99.90
2019-03-27T12:50:49.427Z,99.90
2019-03-27T12:53:59.063Z,99.90
2019-03-27T12:57:08.512Z,99.90
2019-03-27T13:00:28.031Z,99.90
2019-03-27T13:03:38.093Z,99.90
2019-03-27T13:06:57.813Z,99.90
2019-03-27T13:10:07.846Z,99.90
2019-03-27T13:13:27.578Z,99.90
2019-03-27T13:16:37.003Z,99.90
2019-03-27T13:19:46.550Z,99.90
2019-03-27T13:23:09.548Z,99.90
2019-03-27T13:26:19.158Z,99.90
2019-03-27T13:29:39.134Z,99.90
2019-03-27T13:32:48.606Z,99.90
2019-03-27T13:35:58.337Z,99.90
2019-03-27T13:39:09.978Z,99.90
2019-03-27T13:42:29.717Z,99.90
2019-03-27T13:45:39.464Z,99.90
2019-03-27T13:48:50.549Z,99.90
2019-03-27T13:52:00.021Z,99.90
2019-03-27T13:55:10.085Z,99.90
2019-03-27T13:58:19.455Z,99.90
2019-03-27T14:01:28.888Z,99.90
2019-03-27T14:04:38.479Z,99.90
2019-03-27T14:07:48.002Z,99.90
2019-03-27T14:10:57.488Z,99.90
2019-03-27T14:14:11.555Z,99.90
2019-03-27T14:17:18.240Z,99.90
2019-03-27T14:20:28.864Z,99.90
2019-03-27T14:23:38.414Z,99.90
2019-03-27T14:26:47.870Z,99.90
2019-03-27T14:29:57.595Z,99.90
2019-03-27T14:33:06.923Z,99.90
2019-03-27T14:36:16.527Z,99.90
2019-03-27T14:39:36.250Z,99.90
2019-03-27T14:42:45.700Z,99.90
2019-03-27T14:45:55.357Z,99.90
2019-03-27T14:49:04.913Z,99.90
2019-03-27T14:52:14.446Z,99.90
2019-03-27T14:55:34.157Z,99.90
2019-03-27T14:58:43.648Z,99.90
2019-03-27T15:01:56.325Z,99.90
2019-03-27T15:05:06.264Z,99.90
2019-03-27T15:08:15.722Z,99.90
2019-03-27T15:11:25.339Z,99.90
2019-03-27T15:14:34.836Z,99.90
2019-03-27T15:17:44.323Z,99.90
2019-03-27T15:20:53.867Z,99.90
2019-03-27T15:24:03.412Z,99.90
2019-03-27T15:27:13.057Z,99.90
2019-03-27T15:30:32.742Z,99.90
2019-03-27T15:33:42.182Z,99.90
2019-03-27T15:36:51.727Z,99.90
2019-03-27T15:40:01.072Z,99.90
2019-03-27T15:43:10.717Z,99.90
2019-03-27T15:46:30.384Z,99.90
2019-03-27T15:49:39.893Z,99.90
2019-03-27T15:52:49.518Z,99.90
2019-03-27T15:55:59.033Z,99.90
2019-03-27T15:59:08.478Z,99.90
2019-03-27T16:02:18.031Z,99.90
2019-03-27T16:05:27.391Z,99.90
2019-03-27T16:08:36.872Z,99.90
2019-03-27T16:11:46.421Z,99.90
2019-03-27T16:14:56.009Z,99.90
2019-03-27T16:18:05.850Z,99.90
2019-03-27T16:21:25.779Z,99.90
2019-03-27T16:24:35.589Z,99.90
2019-03-27T16:27:45.134Z,99.90
2019-03-27T16:30:55.611Z,99.90
2019-03-27T16:34:05.347Z,99.90
2019-03-27T16:37:25.233Z,99.90
2019-03-27T16:40:50.745Z,99.90
2019-03-27T16:44:00.354Z,99.90
2019-03-27T16:47:09.944Z,99.90
2019-03-27T16:50:19.623Z,99.90
2019-03-27T16:53:29.035Z,99.90
2019-03-27T16:56:38.671Z,99.90
2019-03-27T16:59:48.224Z,99.90
2019-03-27T17:02:57.724Z,99.90
2019-03-27T17:06:17.451Z,99.90
2019-03-27T17:09:26.908Z,99.90
2019-03-27T17:12:36.454Z,99.90
2019-03-27T17:15:46.091Z,99.90
2019-03-27T17:18:55.634Z,99.90
2019-03-27T17:22:18.916Z,99.90
2019-03-27T17:25:17.508Z,99.90
2019-03-27T17:28:37.519Z,99.90
2019-03-27T17:31:46.950Z,99.90
2019-03-27T17:34:56.466Z,99.90
2019-03-27T17:38:06.097Z,99.90
2019-03-27T17:41:16.889Z,99.90
2019-03-27T17:44:27.455Z,99.90
2019-03-27T17:47:47.221Z,99.90
2019-03-27T17:50:56.763Z,99.90
2019-03-27T17:54:19.663Z,99.90
2019-03-27T17:57:17.373Z,99.90
2019-03-27T18:00:47.983Z,99.90
2019-03-27T18:03:57.388Z,99.90
2019-03-27T18:07:07.009Z,99.90
2019-03-27T18:10:16.926Z,99.90
2019-03-27T18:13:26.279Z,99.90
2019-03-27T18:16:35.781Z,99.90
2019-03-27T18:19:45.423Z,99.90
2019-03-27T18:23:05.137Z,99.90
2019-03-27T18:26:14.652Z,99.90
2019-03-27T18:29:24.073Z,99.90
2019-03-27T18:32:33.447Z,99.90
2019-03-27T18:35:42.930Z,99.90
2019-03-27T18:39:02.860Z,99.90
2019-03-27T18:42:12.522Z,99.90
2019-03-27T18:45:32.622Z,99.90
2019-03-27T18:48:42.154Z,99.90
2019-03-27T18:51:53.271Z,99.90
2019-03-27T18:55:02.859Z,99.90
2019-03-27T18:58:12.527Z,99.90
2019-03-27T19:01:22.273Z,99.90
2019-03-27T19:04:31.807Z,99.90
2019-03-27T19:07:41.338Z,99.90
2019-03-27T19:10:50.691Z,99.90
2019-03-27T19:14:00.351Z,99.90
2019-03-27T19:17:09.805Z,99.90
2019-03-27T19:20:30.606Z,99.90
2019-03-27T19:23:50.466Z,99.90
2019-03-27T19:27:00.465Z,99.90
2019-03-27T19:30:11.961Z,99.90
2019-03-27T19:33:21.411Z,99.90
2019-03-27T19:36:31.126Z,99.90
2019-03-27T19:39:40.580Z,99.90
2019-03-27T19:42:50.099Z,99.90
2019-03-27T19:45:59.658Z,99.90
2019-03-27T19:49:19.439Z,99.90
2019-03-27T19:52:28.999Z,99.90
2019-03-27T19:55:38.637Z,99.90
2019-03-27T19:58:48.114Z,99.90
2019-03-27T20:01:57.591Z,99.90
2019-03-27T20:05:07.321Z,99.90
2019-03-27T20:08:16.678Z,99.90
2019-03-27T20:11:36.688Z,99.90
2019-03-27T20:14:46.140Z,99.90
2019-03-27T20:17:55.722Z,99.90
2019-03-27T20:21:05.243Z,99.90
2019-03-27T20:24:14.651Z,99.90
2019-03-27T20:27:24.422Z,99.90
2019-03-27T20:30:32.297Z,99.90
2019-03-27T20:33:41.876Z,99.90
2019-03-27T20:36:51.419Z,99.90
2019-03-27T20:40:00.794Z,99.90
2019-03-27T20:43:10.249Z,99.90
2019-03-27T20:46:25.402Z,99.90
2019-03-27T20:49:31.036Z,99.90
2019-03-27T20:52:40.682Z,99.90
2019-03-27T20:55:53.596Z,99.90
2019-03-27T20:59:03.996Z,99.90
2019-03-27T21:02:26.159Z,99.90
2019-03-27T21:05:35.659Z,99.90
2019-03-27T21:08:45.328Z,99.90
2019-03-27T21:11:56.394Z,99.90
2019-03-27T21:15:16.177Z,99.90
2019-03-27T21:18:26.435Z,99.90
2019-03-27T21:21:42.131Z,99.90
2019-03-27T21:24:51.879Z,99.90
2019-03-27T21:28:01.532Z,99.90
2019-03-27T21:31:11.005Z,99.90
2019-03-27T21:34:20.574Z,99.90
2019-03-27T21:37:28.569Z,99.90
2019-03-27T21:40:39.462Z,99.90
2019-03-27T21:43:50.403Z,99.90
2019-03-27T21:46:59.989Z,99.90
2019-03-27T21:50:10.595Z,99.90
2019-03-27T21:53:19.946Z,99.90
2019-03-27T21:56:30.662Z,99.90
2019-03-27T21:59:50.753Z,99.90
2019-03-27T22:03:01.111Z,99.90
2019-03-27T22:06:10.605Z,99.90
2019-03-27T22:09:20.177Z,99.90
2019-03-27T22:12:29.688Z,99.90
2019-03-27T22:15:39.269Z,99.90
2019-03-27T22:18:48.596Z,99.90
2019-03-27T22:21:58.115Z,99.90
2019-03-27T22:25:17.901Z,99.90
2019-03-27T22:28:28.174Z,99.90
2019-03-27T22:31:37.573Z,99.90
2019-03-27T22:34:47.247Z,99.90
2019-03-27T22:38:06.952Z,99.90
2019-03-27T22:41:16.374Z,99.90
2019-03-27T22:44:25.917Z,99.90
2019-03-27T22:47:35.465Z,99.90
2019-03-27T22:50:45.007Z,99.90
2019-03-27T22:54:24.151Z,99.90
2019-03-27T22:57:33.600Z,99.90
2019-03-27T23:00:50.407Z,99.90
2019-03-27T23:03:59.947Z,99.90
2019-03-27T23:07:19.493Z,99.90
2019-03-27T23:10:28.970Z,99.90
2019-03-27T23:13:38.320Z,99.90
2019-03-27T23:16:58.203Z,99.90
2019-03-27T23:20:10.715Z,99.90
2019-03-27T23:23:20.127Z,99.90
2019-03-27T23:26:39.823Z,99.90
2019-03-27T23:29:49.491Z,99.90
2019-03-27T23:32:58.969Z,99.90
2019-03-27T23:36:08.588Z,99.90
2019-03-27T23:39:17.718Z,99.90
2019-03-27T23:42:37.572Z,99.90
2019-03-27T23:45:47.142Z,99.90
2019-03-27T23:48:56.176Z,99.90
2019-03-27T23:52:05.650Z,99.90
2019-03-27T23:55:15.166Z,99.90
2019-03-27T23:58:24.555Z,99.90
